createdAt,value
2018-08-02T00:01:04.761Z,21.68
2018-08-02T00:02:14.899Z,21.72
2018-08-02T00:03:25.105Z,21.57
2018-08-02T00:04:35.333Z,21.65
2018-08-02T00:05:45.499Z,21.61
2018-08-02T00:06:55.642Z,21.56
2018-08-02T00:08:05.786Z,21.69
2018-08-02T00:09:15.807Z,21.71
2018-08-02T00:10:25.692Z,21.71
2018-08-02T00:11:35.834Z,21.75
2018-08-02T00:12:45.965Z,21.72
2018-08-02T00:13:55.883Z,21.76
2018-08-02T00:15:06.024Z,21.78
2018-08-02T00:16:17.133Z,21.76
2018-08-02T00:17:27.971Z,21.75
2018-08-02T00:18:38.132Z,21.76
2018-08-02T00:19:48.267Z,21.72
2018-08-02T00:20:58.474Z,21.73
2018-08-02T00:22:08.639Z,21.71
2018-08-02T00:23:18.849Z,21.75
2018-08-02T00:24:29.031Z,21.72
2018-08-02T00:25:39.209Z,21.68
2018-08-02T00:26:49.384Z,21.68
2018-08-02T00:27:59.542Z,21.56
2018-08-02T00:29:09.675Z,21.54
2018-08-02T00:30:19.563Z,21.53
2018-08-02T00:31:29.483Z,21.57
2018-08-02T00:32:39.668Z,21.49
2018-08-02T00:33:49.539Z,21.4
2018-08-02T00:34:59.692Z,21.34
2018-08-02T00:36:09.914Z,21.34
2018-08-02T00:37:20.154Z,21.43
2018-08-02T00:38:30.384Z,21.41
2018-08-02T00:39:40.530Z,21.45
2018-08-02T00:40:50.662Z,21.35
2018-08-02T00:42:00.952Z,21.49
2018-08-02T00:43:10.567Z,21.54
2018-08-02T00:44:20.743Z,21.38
2018-08-02T00:45:30.860Z,21.4
2018-08-02T00:46:41.000Z,21.43
2018-08-02T00:47:51.148Z,21.4
2018-08-02T00:49:01.989Z,21.41
2018-08-02T00:50:12.113Z,21.34
2018-08-02T00:51:23.220Z,21.31
2018-08-02T00:52:33.391Z,21.34
2018-08-02T00:53:43.871Z,21.4
2018-08-02T00:54:54.147Z,21.34
2018-08-02T00:56:04.029Z,21.35
2018-08-02T00:57:14.192Z,21.28
2018-08-02T00:58:24.318Z,21.33
2018-08-02T00:59:34.472Z,21.4
2018-08-02T01:00:44.619Z,21.45
2018-08-02T01:01:54.807Z,21.54
2018-08-02T01:03:05.184Z,21.56
2018-08-02T01:04:15.352Z,21.56
2018-08-02T01:05:25.217Z,21.56
2018-08-02T01:06:35.421Z,21.5
2018-08-02T01:07:45.544Z,21.54
2018-08-02T01:08:55.458Z,21.43
2018-08-02T01:10:05.668Z,21.41
2018-08-02T01:11:15.799Z,21.41
2018-08-02T01:12:25.934Z,21.41
2018-08-02T01:13:36.056Z,21.25
2018-08-02T01:14:46.274Z,21.22
2018-08-02T01:15:56.500Z,21.13
2018-08-02T01:17:06.705Z,21.12
2018-08-02T01:18:16.576Z,21.12
2018-08-02T01:19:26.342Z,21.06
2018-08-02T01:20:36.489Z,21.08
2018-08-02T01:21:46.676Z,20.97
2018-08-02T01:22:56.817Z,20.85
2018-08-02T01:24:06.755Z,20.82
2018-08-02T01:25:16.904Z,20.81
2018-08-02T01:26:27.023Z,20.82
2018-08-02T01:27:37.205Z,20.78
2018-08-02T01:28:47.448Z,20.79
2018-08-02T01:29:57.574Z,20.79
2018-08-02T01:31:07.723Z,20.64
2018-08-02T01:32:17.274Z,20.6
2018-08-02T01:33:27.505Z,20.56
2018-08-02T01:34:37.366Z,20.53
2018-08-02T01:35:47.258Z,20.49
2018-08-02T01:36:57.466Z,20.48
2018-08-02T01:38:07.864Z,20.49
2018-08-02T01:39:18.170Z,20.42
2018-08-02T01:40:28.313Z,20.45
2018-08-02T01:41:38.495Z,20.43
2018-08-02T01:42:48.700Z,20.43
2018-08-02T01:43:58.918Z,20.49
2018-08-02T01:45:08.848Z,20.53
2018-08-02T01:46:18.975Z,20.54
2018-08-02T01:47:29.124Z,20.58
2018-08-02T01:48:39.270Z,20.61
2018-08-02T01:49:49.569Z,20.58
2018-08-02T01:50:59.875Z,20.61
2018-08-02T01:52:10.015Z,20.67
2018-08-02T01:53:20.141Z,20.64
2018-08-02T01:54:30.043Z,20.67
2018-08-02T01:55:41.153Z,20.66
2018-08-02T01:56:51.022Z,20.66
2018-08-02T01:58:01.164Z,20.63
2018-08-02T01:59:11.292Z,20.64
2018-08-02T02:00:21.433Z,20.61
2018-08-02T02:01:31.702Z,20.68
2018-08-02T02:02:41.849Z,20.64
2018-08-02T02:03:51.990Z,20.63
2018-08-02T02:05:01.882Z,20.63
2018-08-02T02:06:11.755Z,20.56
2018-08-02T02:07:21.884Z,20.57
2018-08-02T02:08:31.999Z,20.54
2018-08-02T02:09:41.885Z,20.57
2018-08-02T02:10:52.036Z,20.51
2018-08-02T02:12:02.228Z,20.45
2018-08-02T02:13:12.441Z,20.46
2018-08-02T02:14:22.722Z,20.41
2018-08-02T02:15:32.600Z,20.36
2018-08-02T02:16:42.727Z,20.36
2018-08-02T02:17:52.594Z,20.3
2018-08-02T02:19:02.753Z,20.36
2018-08-02T02:20:12.914Z,20.41
2018-08-02T02:21:23.090Z,20.42
2018-08-02T02:22:33.251Z,20.46
2018-08-02T02:23:43.469Z,20.41
2018-08-02T02:24:53.696Z,20.48
2018-08-02T02:26:03.944Z,20.43
2018-08-02T02:27:14.177Z,20.43
2018-08-02T02:28:24.397Z,20.34
2018-08-02T02:29:34.598Z,20.31
2018-08-02T02:30:44.496Z,20.39
2018-08-02T02:31:54.625Z,20.38
2018-08-02T02:33:04.768Z,20.43
2018-08-02T02:34:14.967Z,20.36
2018-08-02T02:35:24.970Z,20.43
2018-08-02T02:36:35.123Z,20.36
2018-08-02T02:37:44.935Z,20.43
2018-08-02T02:38:55.067Z,20.42
2018-08-02T02:40:05.395Z,20.43
2018-08-02T02:41:15.590Z,20.39
2018-08-02T02:42:25.728Z,20.53
2018-08-02T02:43:35.887Z,20.42
2018-08-02T02:44:46.030Z,20.39
2018-08-02T02:45:56.196Z,20.46
2018-08-02T02:47:06.321Z,20.45
2018-08-02T02:48:16.527Z,20.53
2018-08-02T02:49:26.695Z,20.53
2018-08-02T02:50:36.825Z,20.57
2018-08-02T02:51:46.612Z,20.58
2018-08-02T02:52:56.736Z,20.6
2018-08-02T02:54:06.616Z,20.58
2018-08-02T02:55:16.736Z,20.61
2018-08-02T02:56:26.900Z,20.71
2018-08-02T02:57:36.770Z,20.67
2018-08-02T02:58:46.895Z,20.75
2018-08-02T02:59:57.033Z,20.72
2018-08-02T03:01:07.166Z,20.73
2018-08-02T03:02:17.099Z,20.78
2018-08-02T03:03:27.005Z,20.67
2018-08-02T03:04:37.133Z,20.64
2018-08-02T03:05:47.255Z,20.48
2018-08-02T03:06:57.375Z,20.56
2018-08-02T03:08:07.561Z,20.49
2018-08-02T03:09:17.426Z,20.46
2018-08-02T03:10:27.553Z,20.46
2018-08-02T03:11:37.722Z,20.46
2018-08-02T03:12:48.057Z,20.43
2018-08-02T03:13:58.432Z,20.56
2018-08-02T03:15:08.550Z,20.49
2018-08-02T03:16:18.659Z,20.58
2018-08-02T03:17:28.833Z,20.61
2018-08-02T03:18:39.073Z,20.63
2018-08-02T03:19:48.968Z,20.64
2018-08-02T03:20:59.110Z,20.51
2018-08-02T03:22:09.053Z,20.58
2018-08-02T03:23:20.147Z,20.58
2018-08-02T03:24:30.279Z,20.49
2018-08-02T03:25:40.530Z,20.46
2018-08-02T03:26:50.680Z,20.49
2018-08-02T03:28:00.841Z,20.43
2018-08-02T03:29:11.034Z,20.51
2018-08-02T03:30:20.987Z,20.54
2018-08-02T03:31:31.116Z,20.58
2018-08-02T03:32:41.134Z,20.56
2018-08-02T03:33:52.048Z,20.56
2018-08-02T03:35:02.225Z,20.6
2018-08-02T03:36:12.601Z,20.6
2018-08-02T03:37:22.725Z,20.53
2018-08-02T03:38:32.857Z,20.58
2018-08-02T03:39:43.114Z,20.51
2018-08-02T03:40:53.249Z,20.54
2018-08-02T03:42:03.529Z,20.53
2018-08-02T03:43:13.430Z,20.57
2018-08-02T03:44:23.828Z,20.63
2018-08-02T03:45:34.042Z,20.48
2018-08-02T03:46:43.917Z,20.49
2018-08-02T03:47:54.127Z,20.46
2018-08-02T03:49:04.463Z,20.28
2018-08-02T03:50:14.344Z,20.2
2018-08-02T03:51:24.464Z,20.12
2018-08-02T03:52:34.811Z,20.16
2018-08-02T03:53:45.109Z,20.04
2018-08-02T03:54:55.625Z,20.05
2018-08-02T03:56:05.804Z,20.16
2018-08-02T03:57:15.931Z,20.07
2018-08-02T03:58:26.123Z,20.04
2018-08-02T03:59:35.893Z,20.07
2018-08-02T04:00:46.051Z,19.97
2018-08-02T04:01:56.311Z,19.92
2018-08-02T04:03:06.550Z,19.89
2018-08-02T04:04:16.735Z,20
2018-08-02T04:05:26.582Z,19.95
2018-08-02T04:06:36.440Z,20.03
2018-08-02T04:07:46.724Z,20.08
2018-08-02T04:08:57.125Z,20.05
2018-08-02T04:10:07.353Z,19.98
2018-08-02T04:11:17.269Z,20.08
2018-08-02T04:12:27.401Z,20.03
2018-08-02T04:13:37.561Z,20.03
2018-08-02T04:14:47.709Z,20.03
2018-08-02T04:15:57.918Z,19.93
2018-08-02T04:17:08.191Z,20.07
2018-08-02T04:18:18.398Z,20.16
2018-08-02T04:19:28.610Z,20.08
2018-08-02T04:20:39.006Z,20.03
2018-08-02T04:21:49.142Z,20.14
2018-08-02T04:22:59.330Z,19.95
2018-08-02T04:24:09.445Z,19.98
2018-08-02T04:25:19.574Z,20
2018-08-02T04:26:29.978Z,19.95
2018-08-02T04:27:40.161Z,19.95
2018-08-02T04:28:50.389Z,19.92
2018-08-02T04:30:00.568Z,19.95
2018-08-02T04:31:10.748Z,20.01
2018-08-02T04:32:20.881Z,20.05
2018-08-02T04:33:31.318Z,20.11
2018-08-02T04:34:41.518Z,20.05
2018-08-02T04:35:51.692Z,20.17
2018-08-02T04:37:01.958Z,20.21
2018-08-02T04:38:12.228Z,20.24
2018-08-02T04:39:22.498Z,20.17
2018-08-02T04:40:32.718Z,20.2
2018-08-02T04:41:42.927Z,20.26
2018-08-02T04:42:53.138Z,20.19
2018-08-02T04:44:03.319Z,20.28
2018-08-02T04:45:13.209Z,20.28
2018-08-02T04:46:23.357Z,20.3
2018-08-02T04:47:32.988Z,20.27
2018-08-02T04:48:43.304Z,20.28
2018-08-02T04:49:53.481Z,20.34
2018-08-02T04:51:03.706Z,20.28
2018-08-02T04:52:13.842Z,20.31
2018-08-02T04:53:24.027Z,20.27
2018-08-02T04:54:34.155Z,20.27
2018-08-02T04:55:44.038Z,20.21
2018-08-02T04:56:54.268Z,20.2
2018-08-02T04:58:04.467Z,20.05
2018-08-02T04:59:14.612Z,20.21
2018-08-02T05:00:24.793Z,20.11
2018-08-02T05:01:35.107Z,20.26
2018-08-02T05:02:45.398Z,20.21
2018-08-02T05:03:55.623Z,20.2
2018-08-02T05:05:05.820Z,20.27
2018-08-02T05:06:16.028Z,20.21
2018-08-02T05:07:25.963Z,20.17
2018-08-02T05:08:36.086Z,20.26
2018-08-02T05:09:46.297Z,20.11
2018-08-02T05:10:56.497Z,20.16
2018-08-02T05:12:07.718Z,20.16
2018-08-02T05:13:17.910Z,20.2
2018-08-02T05:14:28.140Z,20.21
2018-08-02T05:15:38.025Z,20.27
2018-08-02T05:16:48.178Z,20.21
2018-08-02T05:17:58.345Z,20.17
2018-08-02T05:19:09.211Z,20.23
2018-08-02T05:20:19.337Z,20.2
2018-08-02T05:21:29.491Z,20.24
2018-08-02T05:22:39.382Z,20.21
2018-08-02T05:23:49.544Z,20.16
2018-08-02T05:24:59.712Z,20.11
2018-08-02T05:26:09.922Z,20.11
2018-08-02T05:27:19.847Z,20.14
2018-08-02T05:28:29.982Z,20.16
2018-08-02T05:29:40.116Z,20.08
2018-08-02T05:30:50.383Z,20.17
2018-08-02T05:32:00.523Z,20.04
2018-08-02T05:33:10.734Z,20.16
2018-08-02T05:34:21.530Z,20.11
2018-08-02T05:35:33.346Z,20.17
2018-08-02T05:36:46.615Z,20.2
2018-08-02T05:37:59.154Z,20.14
2018-08-02T05:39:09.293Z,20.26
2018-08-02T05:40:19.179Z,20.23
2018-08-02T05:41:29.333Z,20.28
2018-08-02T05:42:39.460Z,20.14
2018-08-02T05:43:49.600Z,20.16
2018-08-02T05:44:59.742Z,20.07
2018-08-02T05:46:10.019Z,20.07
2018-08-02T05:47:20.146Z,19.95
2018-08-02T05:48:30.401Z,19.93
2018-08-02T05:49:40.668Z,19.95
2018-08-02T05:50:50.997Z,20.03
2018-08-02T05:52:01.142Z,20.12
2018-08-02T05:53:11.341Z,20.12
2018-08-02T05:54:21.210Z,20.16
2018-08-02T05:55:31.327Z,20.19
2018-08-02T05:56:41.227Z,20.19
2018-08-02T05:57:51.412Z,20.23
2018-08-02T05:59:01.086Z,20.24
2018-08-02T06:00:11.299Z,20.12
2018-08-02T06:01:21.472Z,20.2
2018-08-02T06:02:31.364Z,20.2
2018-08-02T06:03:41.354Z,20.2
2018-08-02T06:04:51.244Z,20.05
2018-08-02T06:06:01.383Z,20.07
2018-08-02T06:07:11.608Z,20.08
2018-08-02T06:08:21.768Z,20.14
2018-08-02T06:09:31.923Z,20.2
2018-08-02T06:10:42.182Z,20.12
2018-08-02T06:11:52.618Z,20.23
2018-08-02T06:13:02.776Z,20.19
2018-08-02T06:14:12.932Z,20.14
2018-08-02T06:15:23.307Z,20.14
2018-08-02T06:16:33.589Z,20.17
2018-08-02T06:17:44.032Z,20.19
2018-08-02T06:18:54.252Z,20.24
2018-08-02T06:20:04.594Z,20.26
2018-08-02T06:21:14.731Z,20.23
2018-08-02T06:22:24.983Z,20.27
2018-08-02T06:23:35.189Z,20.24
2018-08-02T06:24:45.391Z,20.2
2018-08-02T06:25:55.575Z,20.14
2018-08-02T06:27:05.831Z,20.28
2018-08-02T06:28:15.765Z,20.24
2018-08-02T06:29:26.220Z,20.21
2018-08-02T06:30:36.619Z,20.23
2018-08-02T06:31:46.755Z,20.28
2018-08-02T06:32:56.969Z,20.19
2018-08-02T06:34:07.235Z,20.21
2018-08-02T06:35:17.372Z,20.19
2018-08-02T06:36:27.321Z,20.24
2018-08-02T06:37:37.083Z,20.19
2018-08-02T06:38:47.213Z,20.26
2018-08-02T06:39:57.345Z,20.19
2018-08-02T06:41:08.034Z,20.17
2018-08-02T06:42:18.190Z,20.24
2018-08-02T06:43:28.346Z,20.24
2018-08-02T06:44:38.589Z,20.26
2018-08-02T06:45:48.503Z,20.31
2018-08-02T06:46:58.753Z,20.3
2018-08-02T06:48:08.940Z,20.23
2018-08-02T06:49:19.072Z,20.12
2018-08-02T06:50:29.008Z,20.12
2018-08-02T06:51:39.248Z,20.2
2018-08-02T06:52:49.668Z,20.24
2018-08-02T06:53:59.860Z,20.21
2018-08-02T06:55:09.576Z,20.27
2018-08-02T06:56:19.786Z,20.31
2018-08-02T06:57:30.022Z,20.34
2018-08-02T06:58:40.311Z,20.24
2018-08-02T06:59:50.529Z,20.27
2018-08-02T07:01:00.725Z,20.28
2018-08-02T07:02:10.363Z,20.31
2018-08-02T07:03:20.328Z,20.31
2018-08-02T07:04:30.473Z,20.38
2018-08-02T07:05:40.648Z,20.31
2018-08-02T07:06:50.861Z,20.38
2018-08-02T07:08:01.026Z,20.3
2018-08-02T07:09:11.200Z,20.34
2018-08-02T07:10:20.964Z,20.27
2018-08-02T07:11:31.104Z,20.21
2018-08-02T07:12:41.271Z,20.2
2018-08-02T07:13:51.398Z,20.26
2018-08-02T07:15:01.546Z,20.19
2018-08-02T07:16:11.726Z,20.2
2018-08-02T07:17:21.925Z,20.14
2018-08-02T07:18:31.889Z,20.24
2018-08-02T07:19:42.003Z,20.3
2018-08-02T07:20:52.154Z,20.41
2018-08-02T07:22:02.316Z,20.34
2018-08-02T07:23:12.550Z,20.36
2018-08-02T07:24:22.711Z,20.46
2018-08-02T07:25:32.857Z,20.36
2018-08-02T07:26:42.978Z,20.45
2018-08-02T07:27:53.181Z,20.42
2018-08-02T07:29:03.048Z,20.43
2018-08-02T07:30:13.166Z,20.35
2018-08-02T07:31:23.324Z,20.43
2018-08-02T07:32:33.462Z,20.48
2018-08-02T07:33:43.625Z,20.53
2018-08-02T07:34:53.897Z,20.41
2018-08-02T07:36:04.092Z,20.54
2018-08-02T07:37:14.274Z,20.56
2018-08-02T07:38:25.361Z,20.53
2018-08-02T07:39:35.561Z,20.61
2018-08-02T07:40:46.663Z,20.6
2018-08-02T07:41:56.541Z,20.58
2018-08-02T07:43:06.922Z,20.56
2018-08-02T07:44:17.294Z,20.56
2018-08-02T07:45:27.424Z,20.61
2018-08-02T07:46:37.563Z,20.66
2018-08-02T07:47:47.793Z,20.75
2018-08-02T07:48:57.821Z,20.78
2018-08-02T07:50:08.261Z,20.78
2018-08-02T07:51:18.498Z,20.83
2018-08-02T07:52:28.630Z,20.85
2018-08-02T07:53:38.784Z,20.88
2018-08-02T07:54:48.739Z,20.94
2018-08-02T07:55:58.861Z,20.96
2018-08-02T07:57:09.070Z,20.91
2018-08-02T07:58:18.982Z,20.97
2018-08-02T07:59:29.125Z,20.97
2018-08-02T08:00:39.276Z,20.97
2018-08-02T08:01:48.788Z,21
2018-08-02T08:02:58.971Z,20.96
2018-08-02T08:04:09.409Z,20.94
2018-08-02T08:05:19.712Z,20.9
2018-08-02T08:06:29.956Z,20.85
2018-08-02T08:07:40.022Z,20.85
2018-08-02T08:08:50.191Z,20.97
2018-08-02T08:10:00.464Z,20.93
2018-08-02T08:11:10.789Z,20.86
2018-08-02T08:12:21.169Z,20.94
2018-08-02T08:13:31.206Z,21.03
2018-08-02T08:14:41.460Z,21.06
2018-08-02T08:15:51.311Z,21.13
2018-08-02T08:17:01.642Z,21.1
2018-08-02T08:18:11.828Z,21.08
2018-08-02T08:19:21.842Z,21.2
2018-08-02T08:20:32.387Z,21.18
2018-08-02T08:21:42.813Z,21.2
2018-08-02T08:22:53.266Z,21.13
2018-08-02T08:24:03.451Z,21.19
2018-08-02T08:25:13.324Z,21.18
2018-08-02T08:26:23.015Z,21.23
2018-08-02T08:27:32.924Z,21.25
2018-08-02T08:28:43.139Z,21.23
2018-08-02T08:29:53.329Z,21.34
2018-08-02T08:31:04.565Z,21.34
2018-08-02T08:32:14.815Z,21.35
2018-08-02T08:33:25.163Z,21.37
2018-08-02T08:34:35.298Z,21.43
2018-08-02T08:35:45.527Z,21.4
2018-08-02T08:36:55.936Z,21.53
2018-08-02T08:38:30.988Z,21.48
2018-08-02T08:39:41.131Z,21.56
2018-08-02T08:40:51.356Z,21.61
2018-08-02T08:42:01.525Z,21.66
2018-08-02T08:43:11.758Z,21.65
2018-08-02T08:44:21.943Z,21.69
2018-08-02T08:45:32.146Z,21.71
2018-08-02T08:46:42.300Z,21.75
2018-08-02T08:47:52.481Z,21.76
2018-08-02T08:49:02.733Z,21.72
2018-08-02T08:50:12.865Z,21.91
2018-08-02T08:51:23.090Z,21.94
2018-08-02T08:52:32.968Z,21.94
2018-08-02T08:53:43.120Z,21.91
2018-08-02T08:54:53.361Z,21.87
2018-08-02T08:56:03.551Z,21.88
2018-08-02T08:57:13.775Z,21.91
2018-08-02T08:58:23.946Z,21.84
2018-08-02T08:59:34.291Z,21.81
2018-08-02T09:00:44.409Z,21.91
2018-08-02T09:01:54.651Z,21.98
2018-08-02T09:03:04.889Z,22.15
2018-08-02T09:04:16.140Z,22.3
2018-08-02T09:05:26.348Z,22.45
2018-08-02T09:06:36.541Z,22.43
2018-08-02T09:07:46.479Z,22.52
2018-08-02T09:08:56.606Z,22.53
2018-08-02T09:10:06.771Z,22.64
2018-08-02T09:11:16.911Z,22.67
2018-08-02T09:12:26.718Z,22.7
2018-08-02T09:13:36.883Z,22.82
2018-08-02T09:14:47.128Z,23.11
2018-08-02T09:15:57.320Z,23.57
2018-08-02T09:17:07.692Z,23.79
2018-08-02T09:18:17.866Z,24.02
2018-08-02T09:19:28.060Z,24.19
2018-08-02T09:20:38.196Z,24.19
2018-08-02T09:21:48.381Z,24.43
2018-08-02T09:22:58.199Z,24.81
2018-08-02T09:24:08.384Z,25.13
2018-08-02T09:25:18.340Z,25.32
2018-08-02T09:26:28.526Z,25.22
2018-08-02T09:27:38.724Z,25.21
2018-08-02T09:28:48.967Z,25.06
2018-08-02T09:29:59.143Z,25.02
2018-08-02T09:31:09.281Z,24.91
2018-08-02T09:32:19.819Z,24.82
2018-08-02T09:33:30.277Z,24.72
2018-08-02T09:34:40.446Z,24.5
2018-08-02T09:35:50.692Z,24.27
2018-08-02T09:37:00.855Z,24.24
2018-08-02T09:38:11.059Z,24.13
2018-08-02T09:39:20.851Z,24.06
2018-08-02T09:40:31.034Z,24.09
2018-08-02T09:41:41.342Z,23.87
2018-08-02T09:42:51.705Z,23.8
2018-08-02T09:44:01.575Z,23.64
2018-08-02T09:45:11.844Z,23.54
2018-08-02T09:46:21.872Z,23.6
2018-08-02T09:47:32.357Z,23.51
2018-08-02T09:48:42.013Z,23.39
2018-08-02T09:49:52.320Z,23.35
2018-08-02T09:51:02.248Z,23.5
2018-08-02T09:52:12.401Z,23.54
2018-08-02T09:53:22.627Z,23.64
2018-08-02T09:54:33.729Z,23.72
2018-08-02T09:55:43.987Z,23.77
2018-08-02T09:56:54.190Z,23.72
2018-08-02T09:58:04.086Z,23.94
2018-08-02T09:59:14.233Z,24.06
2018-08-02T10:00:24.370Z,24.15
2018-08-02T10:01:34.590Z,24.25
2018-08-02T10:02:44.716Z,24.44
2018-08-02T10:03:54.902Z,24.44
2018-08-02T10:05:05.170Z,24.45
2018-08-02T10:06:15.378Z,24.39
2018-08-02T10:07:25.549Z,24.39
2018-08-02T10:08:36.722Z,24.4
2018-08-02T10:09:46.991Z,24.32
2018-08-02T10:10:57.860Z,24.28
2018-08-02T10:12:08.994Z,24.43
2018-08-02T10:13:19.147Z,24.48
2018-08-02T10:14:29.372Z,24.6
2018-08-02T10:15:40.672Z,24.54
2018-08-02T10:16:50.869Z,24.54
2018-08-02T10:18:00.785Z,24.6
2018-08-02T10:19:11.161Z,24.57
2018-08-02T10:20:21.621Z,24.66
2018-08-02T10:21:31.759Z,24.88
2018-08-02T10:22:42.943Z,25.09
2018-08-02T10:23:53.167Z,25.18
2018-08-02T10:25:03.334Z,25.21
2018-08-02T10:26:13.578Z,25.34
2018-08-02T10:27:23.808Z,25.31
2018-08-02T10:28:34.061Z,25.28
2018-08-02T10:29:44.305Z,25.66
2018-08-02T10:30:54.192Z,26.24
2018-08-02T10:32:04.506Z,26.27
2018-08-02T10:33:14.642Z,26.48
2018-08-02T10:34:24.793Z,26.59
2018-08-02T10:35:34.756Z,26.78
2018-08-02T10:36:45.949Z,26.8
2018-08-02T10:37:56.188Z,26.78
2018-08-02T10:39:06.359Z,26.59
2018-08-02T10:40:16.755Z,26.55
2018-08-02T10:41:26.972Z,26.36
2018-08-02T10:42:37.175Z,26.22
2018-08-02T10:43:47.381Z,26.15
2018-08-02T10:44:58.565Z,25.94
2018-08-02T10:46:08.420Z,25.93
2018-08-02T10:47:18.591Z,25.84
2018-08-02T10:48:28.831Z,25.68
2018-08-02T10:49:38.975Z,25.74
2018-08-02T10:50:49.194Z,26.03
2018-08-02T10:51:59.407Z,26.39
2018-08-02T10:53:09.594Z,26.9
2018-08-02T10:54:19.975Z,27.27
2018-08-02T10:55:30.151Z,27.55
2018-08-02T10:56:40.366Z,27.87
2018-08-02T10:57:50.621Z,28.13
2018-08-02T10:59:00.789Z,28.16
2018-08-02T11:00:10.991Z,28.11
2018-08-02T11:01:21.359Z,27.9
2018-08-02T11:02:31.768Z,27.8
2018-08-02T11:03:41.914Z,27.53
2018-08-02T11:04:51.485Z,27.3
2018-08-02T11:06:01.673Z,27.03
2018-08-02T11:07:11.852Z,26.78
2018-08-02T11:08:22.974Z,26.48
2018-08-02T11:09:33.346Z,26.37
2018-08-02T11:10:43.716Z,26.19
2018-08-02T11:11:53.893Z,26.04
2018-08-02T11:13:04.097Z,25.92
2018-08-02T11:14:14.243Z,25.76
2018-08-02T11:15:24.430Z,25.81
2018-08-02T11:16:34.412Z,25.74
2018-08-02T11:17:44.593Z,25.68
2018-08-02T11:18:54.729Z,25.66
2018-08-02T11:20:04.927Z,25.74
2018-08-02T11:21:15.060Z,25.78
2018-08-02T11:22:25.191Z,25.99
2018-08-02T11:23:35.428Z,26.24
2018-08-02T11:24:45.632Z,26.37
2018-08-02T11:25:55.836Z,26.66
2018-08-02T11:27:06.068Z,27.01
2018-08-02T11:28:16.462Z,27.39
2018-08-02T11:29:26.784Z,27.72
2018-08-02T11:30:36.951Z,28.09
2018-08-02T11:31:47.117Z,28.49
2018-08-02T11:32:57.273Z,28.89
2018-08-02T11:34:07.558Z,29.2
2018-08-02T11:35:17.207Z,29.5
2018-08-02T11:36:27.041Z,29.6
2018-08-02T11:37:37.360Z,29.69
2018-08-02T11:38:47.867Z,29.81
2018-08-02T11:39:58.051Z,29.91
2018-08-02T11:41:08.239Z,30.08
2018-08-02T11:42:18.496Z,30.16
2018-08-02T11:43:28.680Z,30.26
2018-08-02T11:44:39.041Z,30.32
2018-08-02T11:45:49.201Z,30.56
2018-08-02T11:46:59.573Z,30.61
2018-08-02T11:48:12.250Z,30.63
2018-08-02T11:49:24.014Z,30.79
2018-08-02T11:50:37.160Z,30.86
2018-08-02T11:51:48.825Z,30.93
2018-08-02T11:53:00.929Z,31.12
2018-08-02T11:54:11.280Z,31.09
2018-08-02T11:55:21.500Z,31.1
2018-08-02T11:56:32.163Z,31.3
2018-08-02T11:57:43.040Z,31.3
2018-08-02T11:58:52.496Z,31.51
2018-08-02T12:00:02.658Z,31.76
2018-08-02T12:01:12.858Z,31.8
2018-08-02T12:02:23.067Z,31.82
2018-08-02T12:03:33.253Z,31.7
2018-08-02T12:04:43.513Z,31.57
2018-08-02T12:05:53.703Z,31.69
2018-08-02T12:07:03.953Z,31.9
2018-08-02T12:08:14.284Z,31.97
2018-08-02T12:09:24.507Z,32.22
2018-08-02T12:10:35.119Z,32.33
2018-08-02T12:11:45.359Z,32.36
2018-08-02T12:12:55.556Z,32.38
2018-08-02T12:14:05.747Z,32.47
2018-08-02T12:15:15.938Z,32.5
2018-08-02T12:16:26.575Z,32.51
2018-08-02T12:17:37.132Z,32.56
2018-08-02T12:18:46.958Z,32.48
2018-08-02T12:19:57.459Z,32.31
2018-08-02T12:21:07.509Z,32.21
2018-08-02T12:22:17.900Z,32.31
2018-08-02T12:23:28.089Z,32.16
2018-08-02T12:24:38.445Z,32.13
2018-08-02T12:25:48.927Z,32.03
2018-08-02T12:26:58.835Z,31.94
2018-08-02T12:28:09.236Z,31.84
2018-08-02T12:29:20.173Z,31.73
2018-08-02T12:30:30.353Z,31.66
2018-08-02T12:31:40.584Z,31.66
2018-08-02T12:32:50.861Z,31.51
2018-08-02T12:34:00.789Z,31.32
2018-08-02T12:35:11.055Z,31.18
2018-08-02T12:36:22.258Z,31.12
2018-08-02T12:37:32.461Z,31.1
2018-08-02T12:38:42.630Z,31.12
2018-08-02T12:39:52.822Z,30.93
2018-08-02T12:41:02.916Z,30.83
2018-08-02T12:42:13.110Z,30.91
2018-08-02T12:43:23.314Z,30.91
2018-08-02T12:44:33.517Z,30.9
2018-08-02T12:45:43.718Z,30.83
2018-08-02T12:46:53.927Z,30.81
2018-08-02T12:48:04.561Z,30.64
2018-08-02T12:49:14.902Z,30.63
2018-08-02T12:50:25.093Z,30.39
2018-08-02T12:51:35.318Z,30.37
2018-08-02T12:52:45.814Z,30.26
2018-08-02T12:53:55.973Z,30.26
2018-08-02T12:55:06.159Z,30.08
2018-08-02T12:56:16.421Z,29.99
2018-08-02T12:57:26.637Z,29.95
2018-08-02T12:58:36.953Z,29.94
2018-08-02T12:59:47.189Z,29.85
2018-08-02T13:00:57.590Z,29.76
2018-08-02T13:02:07.533Z,29.72
2018-08-02T13:03:17.709Z,29.66
2018-08-02T13:04:27.990Z,29.53
2018-08-02T13:05:38.178Z,29.47
2018-08-02T13:06:48.391Z,29.33
2018-08-02T13:07:58.597Z,29.18
2018-08-02T13:09:09.224Z,28.92
2018-08-02T13:10:19.851Z,28.96
2018-08-02T13:11:30.349Z,28.94
2018-08-02T13:12:40.625Z,28.88
2018-08-02T13:13:50.923Z,28.94
2018-08-02T13:15:00.888Z,28.87
2018-08-02T13:16:11.105Z,28.81
2018-08-02T13:17:22.335Z,28.79
2018-08-02T13:18:32.513Z,28.69
2018-08-02T13:19:42.714Z,28.69
2018-08-02T13:20:52.954Z,28.61
2018-08-02T13:22:03.123Z,28.53
2018-08-02T13:23:13.302Z,28.44
2018-08-02T13:24:23.543Z,28.5
2018-08-02T13:25:34.004Z,28.42
2018-08-02T13:26:44.168Z,28.34
2018-08-02T13:27:54.172Z,28.41
2018-08-02T13:29:04.488Z,28.36
2018-08-02T13:30:14.709Z,28.6
2018-08-02T13:31:24.929Z,28.56
2018-08-02T13:32:35.142Z,28.31
2018-08-02T13:33:45.354Z,28.31
2018-08-02T13:34:55.283Z,28.35
2018-08-02T13:36:05.738Z,28.44
2018-08-02T13:37:16.020Z,28.49
2018-08-02T13:38:26.531Z,28.29
2018-08-02T13:39:36.813Z,28.42
2018-08-02T13:40:47.063Z,28.44
2018-08-02T13:41:57.414Z,28.41
2018-08-02T13:43:08.008Z,28.54
2018-08-02T13:44:18.144Z,28.39
2018-08-02T13:45:28.701Z,28.44
2018-08-02T13:46:38.879Z,28.5
2018-08-02T13:47:49.115Z,28.42
2018-08-02T13:48:59.084Z,28.38
2018-08-02T13:50:08.998Z,28.31
2018-08-02T13:51:19.197Z,28.22
2018-08-02T13:52:29.367Z,28.23
2018-08-02T13:53:39.572Z,28.16
2018-08-02T13:54:50.052Z,28.11
2018-08-02T13:56:00.233Z,28.04
2018-08-02T13:57:10.402Z,27.95
2018-08-02T13:58:20.864Z,27.94
2018-08-02T13:59:30.789Z,27.97
2018-08-02T14:00:40.976Z,27.98
2018-08-02T14:01:51.247Z,28.01
2018-08-02T14:03:01.399Z,27.98
2018-08-02T14:04:11.589Z,28.01
2018-08-02T14:05:22.095Z,27.94
2018-08-02T14:06:32.427Z,27.85
2018-08-02T14:07:42.829Z,27.87
2018-08-02T14:08:53.006Z,27.98
2018-08-02T14:10:02.945Z,27.97
2018-08-02T14:11:13.416Z,28.01
2018-08-02T14:12:23.614Z,28.09
2018-08-02T14:13:33.979Z,28.11
2018-08-02T14:14:44.135Z,28.14
2018-08-02T14:15:55.344Z,28.16
2018-08-02T14:17:05.291Z,28.17
2018-08-02T14:18:15.354Z,28.22
2018-08-02T14:19:25.530Z,28.16
2018-08-02T14:20:35.729Z,28.2
2018-08-02T14:21:45.897Z,28.09
2018-08-02T14:22:55.791Z,28.07
2018-08-02T14:24:06.005Z,28.07
2018-08-02T14:25:15.645Z,27.92
2018-08-02T14:26:25.820Z,28.01
2018-08-02T14:27:36.044Z,28.05
2018-08-02T14:28:46.331Z,28.11
2018-08-02T14:29:56.675Z,28.19
2018-08-02T14:31:06.837Z,28.17
2018-08-02T14:32:17.047Z,28.23
2018-08-02T14:33:28.192Z,28.27
2018-08-02T14:34:38.375Z,28.19
2018-08-02T14:35:48.639Z,28.29
2018-08-02T14:36:58.803Z,28.22
2018-08-02T14:38:08.711Z,28.31
2018-08-02T14:39:18.875Z,28.27
2018-08-02T14:40:29.066Z,28.31
2018-08-02T14:41:39.230Z,28.31
2018-08-02T14:42:49.808Z,28.56
2018-08-02T14:44:00.275Z,28.5
2018-08-02T14:45:11.437Z,28.5
2018-08-02T14:46:21.625Z,28.38
2018-08-02T14:47:31.556Z,28.31
2018-08-02T14:48:41.958Z,28.32
2018-08-02T14:49:52.143Z,28.39
2018-08-02T14:51:02.392Z,28.32
2018-08-02T14:52:12.582Z,28.34
2018-08-02T14:53:22.503Z,28.24
2018-08-02T14:54:32.793Z,28.27
2018-08-02T14:55:43.014Z,28.23
2018-08-02T14:56:52.796Z,28.29
2018-08-02T14:58:03.191Z,28.31
2018-08-02T14:59:28.051Z,28.34
2018-08-02T15:00:38.357Z,28.29
2018-08-02T15:01:48.611Z,28.34
2018-08-02T15:02:58.797Z,28.32
2018-08-02T15:04:08.961Z,28.41
2018-08-02T15:05:19.124Z,28.36
2018-08-02T15:06:29.397Z,28.36
2018-08-02T15:07:39.593Z,28.35
2018-08-02T15:08:49.784Z,28.29